Startpagina
METAR-TAF:

METAR-TAF

Vliegvelden :

Fort Smith, Northwest Territories, Canada

breedte: 60-01N, lengte: 111-57W, hoogte: 203 m

Actueel weer

Dit bericht is 52 minuten geleden gemaakt, om 09:00 UTC
Weinig wind
Temperatuur -13°C
Vochtigheid 66%
Druk 1018 hPa
Zicht: 24.1 km
Gebroken wolken op 7300 ft

METAR: CYSM 050900Z 00000KT 15SM BKN073 M13/M18 A3005 RMK AC6 SLP195

Tijdstip: 03:52 (09:52 UTC)

Verwachting

Dit bericht is 4 uur en het 13 minuten geleden gemaakt, om 05:39 UTC
Verwachting geldig van 05 om 06 UTC tot 05 om 18 UTC
Wind 3 kt uit variabele richting
Zicht: 10 km
Verspreide wolken op 5000 ft
Tijdelijke
van 05 om 06 UTC tot 05 om 18 UTC
Gebroken wolken op 4000 ft
Wijzigt naar
van 05 om 07 UTC tot 05 om 09 UTC
Wind 5 kt uit het oostzuidoosten

TAF: CYSM 050539Z 0506/0518 VRB03KT P6SM SCT050 TEMPO 0506/0518 BKN040 BECMG 0507/0509 12005KT RMK NXT FCST BY 051200Z

Waarnemingen en weersverwachtingen van meer dan 4000 vliegvelden (METAR en TAF).

De beschikbare stations zijn de gele en rode punten op de kaart.

Ga met uw muis naar het station om de naam te zien.

Klik dan om waarnemingen en weersverwachtingen te zien.

kaart wijzigen: klik op de groene knoppen met een zwart kruis om in te zoomen, op de groene knop met een streepje om uit te zoomen of op de groene pijlen voor aangrenzende kaarten.


METAR-TAF: